Nogales International Airport Nogales US
ICAO: KOLS
IATA: OLS
Category: Medium
Scheduled Services: No

Elevation: 3955 ft
TransAlt. 18000 ft.

Airport Communications:
TUCSON APP DEP:125.1
ASOS:121.125
PRESCOTT RDO:122.4
CTAF/UNICOM:122.8

KOLS Zoom In..

If you have problems with the map follow the link
https://www.worldairports.se/pages/airport.php?
ICAO=KOLS

Runways:

(A) RW 03 length 7200 ft width 100 ft
---- / hdg 34

(B) RW 21 length 7200 ft width 100 ft
---- / hdg 214

Location; KOLS
Day. 16 / Time. 02.54 Zulu
* Altimeter: 30.11
* Temperature: 09° c. 48.2°f.
* Wind from: 080° Speed 08 kn.
Dewpoint: -12° c.
Visibility: 10 Statute Miles.
Clouds: Clear (automated report).

KOLS 160254Z AUTO 08008KT 10SM CLR 09/M12 A3011 RMK AO2 SLP176 T00891122 51012


Wind From 080°
Speed 08 kn.

 
 
jpsmedia.com for Web Design worldairports.se 2018   terms of use